createdAt,value
2019-04-11T00:01:53.011Z,101299.92
2019-04-11T00:04:22.035Z,101302.72
2019-04-11T00:06:51.910Z,101309.42
2019-04-11T00:09:20.912Z,101306.34
2019-04-11T00:11:50.364Z,101313.83
2019-04-11T00:14:19.974Z,101322.58
2019-04-11T00:16:49.873Z,101319.16
2019-04-11T00:19:19.070Z,101318.49
2019-04-11T00:21:48.808Z,101324.84
2019-04-11T00:24:18.662Z,101322.41
2019-04-11T00:26:47.220Z,101327.91
2019-04-11T00:29:16.397Z,101323.73
2019-04-11T00:31:45.379Z,101325.19
2019-04-11T00:34:15.127Z,101327.26
2019-04-11T00:36:44.268Z,101333.31
2019-04-11T00:39:13.323Z,101331.61
2019-04-11T00:41:41.958Z,101337.50
2019-04-11T00:44:10.481Z,101338.53
2019-04-11T00:46:38.939Z,101333.00
2019-04-11T00:49:08.242Z,101327.27
2019-04-11T00:51:38.064Z,101337.09
2019-04-11T00:54:06.771Z,101333.70
2019-04-11T00:56:36.649Z,101337.77
2019-04-11T00:59:05.836Z,101338.83
2019-04-11T01:01:35.593Z,101337.45
2019-04-11T01:04:04.429Z,101335.36
2019-04-11T01:06:34.236Z,101343.88
2019-04-11T01:09:04.822Z,101345.70
2019-04-11T01:11:34.162Z,101348.30
2019-04-11T01:14:03.580Z,101347.95
2019-04-11T01:16:53.226Z,101348.42
2019-04-11T01:19:22.607Z,101349.12
2019-04-11T01:21:51.373Z,101349.23
2019-04-11T01:24:19.964Z,101352.47
2019-04-11T01:26:49.681Z,101346.27
2019-04-11T01:29:19.593Z,101352.11
2019-04-11T01:31:53.841Z,101348.58
2019-04-11T01:34:22.767Z,101349.02
2019-04-11T01:36:51.397Z,101349.63
2019-04-11T01:39:35.064Z,101354.88
2019-04-11T01:42:03.928Z,101348.50
2019-04-11T01:44:32.586Z,101348.04
2019-04-11T01:47:02.348Z,101352.16
2019-04-11T01:49:32.321Z,101354.70
2019-04-11T01:52:00.860Z,101352.13
2019-04-11T01:54:30.000Z,101355.73
2019-04-11T01:56:58.871Z,101355.13
2019-04-11T01:59:27.490Z,101356.92
2019-04-11T02:02:21.655Z,101359.14
2019-04-11T02:04:58.596Z,101362.24
2019-04-11T02:07:27.432Z,101364.20
2019-04-11T02:09:56.754Z,101366.19
2019-04-11T02:12:25.391Z,101365.38
2019-04-11T02:14:54.032Z,101369.84
2019-04-11T02:17:22.907Z,101376.31
2019-04-11T02:19:52.313Z,101374.09
2019-04-11T02:22:28.643Z,101373.23
2019-04-11T02:25:03.826Z,101386.28
2019-04-11T02:27:33.416Z,101383.55
2019-04-11T02:30:04.065Z,101383.06
2019-04-11T02:32:34.334Z,101388.97
2019-04-11T02:35:05.184Z,101384.59
2019-04-11T02:37:34.687Z,101392.52
2019-04-11T02:40:07.578Z,101389.45
2019-04-11T02:42:36.065Z,101389.23
2019-04-11T02:45:23.097Z,101386.75
2019-04-11T02:47:37.798Z,101384.65
2019-04-11T02:50:08.121Z,101387.52
2019-04-11T02:52:37.783Z,101392.90
2019-04-11T02:55:08.502Z,101395.23
2019-04-11T02:57:38.553Z,101390.80
2019-04-11T03:00:10.491Z,101392.52
2019-04-11T03:02:39.922Z,101395.06
2019-04-11T03:05:11.383Z,101396.51
2019-04-11T03:07:42.167Z,101394.39
2019-04-11T03:10:13.435Z,101405.32
2019-04-11T03:12:43.579Z,101400.27
2019-04-11T03:15:27.500Z,101403.95
2019-04-11T03:17:45.672Z,101408.33
2019-04-11T03:20:25.571Z,101401.99
2019-04-11T03:22:45.282Z,101408.88
2019-04-11T03:25:15.720Z,101415.57
2019-04-11T03:27:45.244Z,101410.14
2019-04-11T03:30:22.829Z,101414.27
2019-04-11T03:33:48.521Z,101415.83
2019-04-11T03:36:07.734Z,101412.89
2019-04-11T03:38:17.394Z,101418.27
2019-04-11T03:40:36.522Z,101413.88
2019-04-11T03:43:02.883Z,101410.66
2019-04-11T03:45:44.112Z,101413.52
2019-04-11T03:48:08.958Z,101422.29
2019-04-11T03:50:25.289Z,101416.85
2019-04-11T03:52:53.934Z,101423.39
2019-04-11T03:55:24.058Z,101423.61
2019-04-11T03:57:56.238Z,101427.61
2019-04-11T04:00:31.412Z,101424.08
2019-04-11T04:02:58.080Z,101429.94
2019-04-11T04:05:30.166Z,101433.73
2019-04-11T04:07:59.707Z,101435.73
2019-04-11T04:10:30.110Z,101438.68
2019-04-11T04:13:00.822Z,101438.95
2019-04-11T04:16:02.740Z,101443.86
2019-04-11T04:18:38.115Z,101438.24
2019-04-11T04:21:17.518Z,101446.48
2019-04-11T04:23:49.644Z,101450.55
2019-04-11T04:26:19.330Z,101447.44
2019-04-11T04:28:48.395Z,101457.89
2019-04-11T04:31:18.495Z,101452.92
2019-04-11T04:33:48.113Z,101455.11
2019-04-11T04:36:18.277Z,101463.38
2019-04-11T04:38:48.878Z,101460.75
2019-04-11T04:41:29.840Z,101473.42
2019-04-11T04:43:50.767Z,101473.15
2019-04-11T04:46:34.800Z,101475.33
2019-04-11T04:48:51.567Z,101477.71
2019-04-11T04:51:23.754Z,101479.56
2019-04-11T04:53:52.112Z,101485.66
2019-04-11T04:56:26.045Z,101485.34
2019-04-11T04:58:51.619Z,101488.89
2019-04-11T05:01:21.691Z,101490.94
2019-04-11T05:03:51.050Z,101491.46
2019-04-11T05:06:20.606Z,101496.19
2019-04-11T05:08:49.404Z,101489.61
2019-04-11T05:11:18.110Z,101498.82
2019-04-11T05:13:50.393Z,101496.03
2019-04-11T05:16:18.083Z,101501.16
2019-04-11T05:18:46.808Z,101505.52
2019-04-11T05:21:15.332Z,101502.33
2019-04-11T05:23:43.863Z,101500.06
2019-04-11T05:26:12.491Z,101505.23
2019-04-11T05:28:41.139Z,101505.99
2019-04-11T05:31:10.166Z,101512.22
2019-04-11T05:33:39.135Z,101512.61
2019-04-11T05:36:08.200Z,101512.41
2019-04-11T05:38:37.970Z,101510.11
2019-04-11T05:41:09.658Z,101507.15
2019-04-11T05:43:39.866Z,101510.85
2019-04-11T05:46:23.967Z,101518.81
2019-04-11T05:48:45.215Z,101513.72
2019-04-11T05:51:18.540Z,101521.11
2019-04-11T05:53:44.180Z,101518.86
2019-04-11T05:56:13.952Z,101515.28
2019-04-11T05:58:47.003Z,101517.23
2019-04-11T06:01:20.276Z,101520.56
2019-04-11T06:03:50.950Z,101524.09
2019-04-11T06:06:26.805Z,101523.00
2019-04-11T06:09:00.720Z,101523.11
2019-04-11T06:11:45.309Z,101523.20
2019-04-11T06:14:39.750Z,101528.64
2019-04-11T06:17:11.494Z,101538.00
2019-04-11T06:20:12.618Z,101543.38
2019-04-11T06:22:54.559Z,101542.39
2019-04-11T06:25:45.995Z,101546.92
2019-04-11T06:28:24.703Z,101549.13
2019-04-11T06:31:15.984Z,101544.87
2019-04-11T06:33:53.117Z,101549.95
2019-04-11T06:36:33.353Z,101555.81
2019-04-11T06:39:16.289Z,101557.89
2019-04-11T06:42:10.781Z,101556.26
2019-04-11T06:45:04.627Z,101555.87
2019-04-11T06:47:51.378Z,101559.75
2019-04-11T06:50:43.873Z,101570.42
2019-04-11T06:53:16.734Z,101564.81
2019-04-11T06:56:10.502Z,101567.34
2019-04-11T06:58:50.726Z,101572.47
2019-04-11T07:01:22.401Z,101573.77
2019-04-11T07:04:00.896Z,101572.09
2019-04-11T07:06:31.454Z,101574.03
2019-04-11T07:09:22.843Z,101572.08
2019-04-11T07:11:54.904Z,101573.23
2019-04-11T07:14:29.509Z,101582.73
2019-04-11T07:17:16.368Z,101577.63
2019-04-11T07:20:23.017Z,101574.56
2019-04-11T07:23:10.117Z,101583.70
2019-04-11T07:25:49.147Z,101574.55
2019-04-11T07:28:41.691Z,101571.96
2019-04-11T07:31:31.891Z,101568.05
2019-04-11T07:34:27.352Z,101570.27
2019-04-11T07:37:23.538Z,101569.05
2019-04-11T07:40:07.416Z,101568.15
2019-04-11T07:43:08.876Z,101571.16
2019-04-11T07:45:53.704Z,101567.41
2019-04-11T07:48:30.570Z,101573.45
2019-04-11T07:51:11.039Z,101561.89
2019-04-11T07:53:43.797Z,101574.34
2019-04-11T07:56:28.040Z,101578.75
2019-04-11T07:58:59.196Z,101573.39
2019-04-11T08:01:42.564Z,101574.23
2019-04-11T08:04:29.968Z,101570.23
2019-04-11T08:07:36.111Z,101562.71
2019-04-11T08:10:10.315Z,101575.20
2019-04-11T08:12:39.378Z,101574.37
2019-04-11T08:15:26.062Z,101565.45
2019-04-11T08:17:54.612Z,101572.48
2019-04-11T08:20:41.602Z,101571.09
2019-04-11T08:23:10.227Z,101569.63
2019-04-11T08:26:04.238Z,101569.75
2019-04-11T08:28:34.397Z,101581.88
2019-04-11T08:31:26.443Z,101576.06
2019-04-11T08:34:01.084Z,101576.74
2019-04-11T08:36:42.548Z,101587.80
2019-04-11T08:39:17.288Z,101578.86
2019-04-11T08:42:15.016Z,101585.86
2019-04-11T08:44:44.834Z,101582.75
2019-04-11T08:47:16.268Z,101584.61
2019-04-11T08:49:48.178Z,101587.23
2019-04-11T08:52:36.557Z,101589.50
2019-04-11T08:55:12.406Z,101581.46
2019-04-11T08:57:44.498Z,101586.48
2019-04-11T09:00:24.263Z,101588.48
2019-04-11T09:03:00.057Z,101583.05
2019-04-11T09:05:42.872Z,101582.80
2019-04-11T09:08:23.301Z,101578.12
2019-04-11T09:11:14.943Z,101576.25
2019-04-11T09:14:01.905Z,101584.44
2019-04-11T09:16:42.573Z,101575.08
2019-04-11T09:19:27.236Z,101576.70
2019-04-11T09:22:26.593Z,101569.63
2019-04-11T09:25:14.883Z,101573.08
2019-04-11T09:27:50.954Z,101581.22
2019-04-11T09:30:30.614Z,101573.63
2019-04-11T09:33:19.034Z,101577.16
2019-04-11T09:35:49.233Z,101569.08
2019-04-11T09:38:18.218Z,101567.12
2019-04-11T09:40:57.167Z,101564.45
2019-04-11T09:43:28.991Z,101574.47
2019-04-11T09:46:30.294Z,101573.23
2019-04-11T09:49:12.361Z,101572.48
2019-04-11T09:52:02.561Z,101577.16
2019-04-11T09:54:37.990Z,101566.78
2019-04-11T09:57:22.816Z,101568.29
2019-04-11T10:00:18.455Z,101562.31
2019-04-11T10:03:06.932Z,101565.17
2019-04-11T10:06:12.242Z,101578.55
2019-04-11T10:08:43.770Z,101575.77
2019-04-11T10:11:30.723Z,101558.95
2019-04-11T10:14:05.064Z,101562.92
2019-04-11T10:16:52.628Z,101569.39
2019-04-11T10:19:31.995Z,101566.90
2019-04-11T10:22:23.001Z,101567.61
2019-04-11T10:25:03.268Z,101555.07
2019-04-11T10:28:04.856Z,101559.52
2019-04-11T10:31:00.125Z,101554.72
2019-04-11T10:33:47.156Z,101554.18
2019-04-11T10:36:25.219Z,101557.67
2019-04-11T10:39:27.015Z,101550.25
2019-04-11T10:41:59.320Z,101556.54
2019-04-11T10:44:38.987Z,101555.85
2019-04-11T10:47:16.491Z,101558.44
2019-04-11T10:50:01.298Z,101562.64
2019-04-11T10:52:34.235Z,101556.20
2019-04-11T10:55:09.716Z,101557.67
2019-04-11T10:57:42.627Z,101563.95
2019-04-11T11:00:29.386Z,101558.48
2019-04-11T11:03:16.721Z,101555.51
2019-04-11T11:05:49.326Z,101565.71
2019-04-11T11:08:29.774Z,101583.82
2019-04-11T11:11:01.206Z,101586.18
2019-04-11T11:13:45.786Z,101570.08
2019-04-11T11:16:14.417Z,101572.13
2019-04-11T11:19:31.609Z,101592.39
2019-04-11T11:21:34.016Z,101583.77
2019-04-11T11:24:39.065Z,101591.09
2019-04-11T11:27:05.722Z,101587.48
2019-04-11T11:29:51.844Z,101591.55
2019-04-11T11:32:45.872Z,101578.22
2019-04-11T11:35:43.546Z,101584.05
2019-04-11T11:38:19.920Z,101588.30
2019-04-11T11:41:07.905Z,101597.34
2019-04-11T11:43:36.588Z,101589.58
2019-04-11T11:46:26.669Z,101594.42
2019-04-11T11:49:07.905Z,101593.00
2019-04-11T11:52:11.250Z,101579.09
2019-04-11T11:54:44.316Z,101579.87
2019-04-11T11:57:21.105Z,101570.53
2019-04-11T11:59:54.178Z,101568.38
2019-04-11T12:02:33.111Z,101574.50
2019-04-11T12:05:12.276Z,101570.95
2019-04-11T12:07:41.055Z,101589.20
2019-04-11T12:10:22.532Z,101581.46
2019-04-11T12:13:12.834Z,101579.69
2019-04-11T12:16:03.659Z,101571.91
2019-04-11T12:18:48.079Z,101565.47
2019-04-11T12:21:21.820Z,101573.27
2019-04-11T12:24:17.542Z,101555.66
2019-04-11T12:26:54.289Z,101551.42
2019-04-11T12:29:47.849Z,101556.98
2019-04-11T12:32:16.529Z,101567.72
2019-04-11T12:35:11.604Z,101559.58
2019-04-11T12:37:45.427Z,101563.13
2019-04-11T12:40:33.899Z,101573.96
2019-04-11T12:43:03.294Z,101574.47
2019-04-11T12:45:54.264Z,101569.07
2019-04-11T12:48:27.622Z,101569.57
2019-04-11T12:51:14.501Z,101573.55
2019-04-11T12:53:44.651Z,101568.28
2019-04-11T12:56:31.903Z,101561.47
2019-04-11T12:59:03.492Z,101572.84
2019-04-11T13:01:50.350Z,101571.46
2019-04-11T13:04:22.366Z,101565.41
2019-04-11T13:07:13.994Z,101566.93
2019-04-11T13:09:57.238Z,101566.53
2019-04-11T13:12:44.449Z,101566.95
2019-04-11T13:15:21.828Z,101572.22
2019-04-11T13:18:00.534Z,101563.45
2019-04-11T13:20:48.084Z,101563.45
2019-04-11T13:23:33.167Z,101556.77
2019-04-11T13:26:18.726Z,101554.60
2019-04-11T13:28:51.766Z,101550.45
2019-04-11T13:31:38.940Z,101551.53
2019-04-11T13:34:11.146Z,101553.98
2019-04-11T13:36:57.643Z,101543.50
2019-04-11T13:39:26.309Z,101540.52
2019-04-11T13:42:26.649Z,101540.58
2019-04-11T13:44:55.291Z,101540.86
2019-04-11T13:47:43.535Z,101544.67
2019-04-11T13:50:16.756Z,101539.29
2019-04-11T13:53:02.146Z,101538.70
2019-04-11T13:55:33.363Z,101521.11
2019-04-11T13:58:30.510Z,101541.75
2019-04-11T14:01:01.245Z,101548.50
2019-04-11T14:03:49.647Z,101546.45
2019-04-11T14:06:36.008Z,101553.50
2019-04-11T14:09:39.840Z,101542.81
2019-04-11T14:12:14.521Z,101541.67
2019-04-11T14:14:52.085Z,101542.66
2019-04-11T14:17:43.514Z,101535.37
2019-04-11T14:20:29.306Z,101517.73
2019-04-11T14:23:14.774Z,101517.39
2019-04-11T14:26:01.601Z,101518.04
2019-04-11T14:28:41.993Z,101527.38
2019-04-11T14:31:22.651Z,101534.14
2019-04-11T14:33:55.985Z,101528.87
2019-04-11T14:36:43.683Z,101524.59
2019-04-11T14:39:14.091Z,101531.17
2019-04-11T14:42:13.853Z,101526.99
2019-04-11T14:44:42.461Z,101529.25
2019-04-11T14:47:39.926Z,101524.32
2019-04-11T14:50:11.174Z,101526.78
2019-04-11T14:52:56.901Z,101523.72
2019-04-11T14:55:25.775Z,101526.34
2019-04-11T14:58:12.637Z,101519.94
2019-04-11T15:00:42.011Z,101515.31
2019-04-11T15:03:30.400Z,101512.36
2019-04-11T15:06:09.363Z,101519.08
2019-04-11T15:08:57.557Z,101524.86
2019-04-11T15:11:47.184Z,101520.88
2019-04-11T15:14:51.560Z,101518.70
2019-04-11T15:17:24.249Z,101515.02
2019-04-11T15:20:09.183Z,101515.56
2019-04-11T15:22:46.026Z,101515.22
2019-04-11T15:25:29.668Z,101513.13
2019-04-11T15:28:07.989Z,101513.31
2019-04-11T15:30:38.084Z,101510.53
2019-04-11T15:33:32.694Z,101504.59
2019-04-11T15:36:01.803Z,101510.70
2019-04-11T15:38:46.235Z,101516.03
2019-04-11T15:41:15.063Z,101523.93
2019-04-11T15:44:03.484Z,101512.83
2019-04-11T15:46:33.597Z,101518.91
2019-04-11T15:49:29.615Z,101528.22
2019-04-11T15:52:00.705Z,101528.93
2019-04-11T15:54:54.602Z,101539.36
2019-04-11T15:57:31.536Z,101535.97
2019-04-11T16:00:28.590Z,101533.78
2019-04-11T16:03:07.506Z,101536.26
2019-04-11T16:06:01.639Z,101538.55
2019-04-11T16:09:00.981Z,101549.98
2019-04-11T16:11:51.866Z,101552.59
2019-04-11T16:14:26.096Z,101543.59
2019-04-11T16:17:20.111Z,101545.39
2019-04-11T16:19:53.504Z,101550.66
2019-04-11T16:22:43.023Z,101549.34
2019-04-11T16:25:13.477Z,101542.49
2019-04-11T16:28:01.666Z,101547.30
2019-04-11T16:30:30.914Z,101545.83
2019-04-11T16:33:17.912Z,101544.38
2019-04-11T16:35:56.960Z,101556.78
2019-04-11T16:38:24.861Z,101556.09
2019-04-11T16:41:13.166Z,101550.23
2019-04-11T16:43:44.224Z,101556.41
2019-04-11T16:46:31.106Z,101553.52
2019-04-11T16:48:59.857Z,101559.08
2019-04-11T16:51:31.188Z,101555.74
2019-04-11T16:53:59.214Z,101561.83
2019-04-11T16:56:27.842Z,101555.59
2019-04-11T16:58:56.421Z,101563.59
2019-04-11T17:01:25.036Z,101558.51
2019-04-11T17:03:55.115Z,101564.81
2019-04-11T17:06:42.348Z,101566.70
2019-04-11T17:09:22.023Z,101570.58
2019-04-11T17:11:50.594Z,101570.22
2019-04-11T17:14:27.865Z,101571.33
2019-04-11T17:16:49.519Z,101572.33
2019-04-11T17:19:18.339Z,101568.31
2019-04-11T17:21:48.433Z,101574.53
2019-04-11T17:24:17.562Z,101579.30
2019-04-11T17:26:46.048Z,101572.37
2019-04-11T17:29:14.570Z,101572.16
2019-04-11T17:31:43.315Z,101574.69
2019-04-11T17:34:11.870Z,101580.87
2019-04-11T17:36:40.511Z,101580.48
2019-04-11T17:39:09.242Z,101585.49
2019-04-11T17:41:41.791Z,101585.94
2019-04-11T17:44:08.518Z,101586.18
2019-04-11T17:46:37.122Z,101588.56
2019-04-11T17:49:05.856Z,101589.02
2019-04-11T17:51:35.278Z,101596.19
2019-04-11T17:54:04.279Z,101599.89
2019-04-11T17:56:32.950Z,101609.80
2019-04-11T17:59:01.691Z,101606.52
2019-04-11T18:01:30.303Z,101608.83
2019-04-11T18:03:58.949Z,101617.25
2019-04-11T18:06:27.657Z,101610.16
2019-04-11T18:08:56.192Z,101615.05
2019-04-11T18:11:26.133Z,101619.14
2019-04-11T18:13:55.138Z,101615.09
2019-04-11T18:16:23.755Z,101625.83
2019-04-11T18:18:52.288Z,101624.91
2019-04-11T18:21:20.996Z,101624.11
2019-04-11T18:23:50.127Z,101630.35
2019-04-11T18:26:21.408Z,101636.95
2019-04-11T18:28:51.820Z,101635.27
2019-04-11T18:31:20.351Z,101633.81
2019-04-11T18:33:48.962Z,101644.00
2019-04-11T18:36:17.575Z,101645.41
2019-04-11T18:38:46.207Z,101646.55
2019-04-11T18:41:14.717Z,101652.53
2019-04-11T18:43:44.785Z,101646.34
2019-04-11T18:46:14.000Z,101653.28
2019-04-11T18:48:42.723Z,101654.58
2019-04-11T18:51:11.443Z,101654.11
2019-04-11T18:53:40.082Z,101653.65
2019-04-11T18:56:08.683Z,101658.08
2019-04-11T18:58:37.317Z,101662.95
2019-04-11T19:01:08.816Z,101663.41
2019-04-11T19:03:41.154Z,101666.22
2019-04-11T19:06:07.702Z,101658.48
2019-04-11T19:08:36.576Z,101670.42
2019-04-11T19:11:05.335Z,101667.20
2019-04-11T19:13:34.068Z,101666.02
2019-04-11T19:16:02.822Z,101669.25
2019-04-11T19:18:31.390Z,101670.13
2019-04-11T19:21:00.139Z,101672.55
2019-04-11T19:23:28.744Z,101676.91
2019-04-11T19:25:57.392Z,101681.69
2019-04-11T19:28:25.924Z,101682.98
2019-04-11T19:30:56.863Z,101682.02
2019-04-11T19:33:24.964Z,101674.67
2019-04-11T19:35:53.707Z,101678.80
2019-04-11T19:38:27.380Z,101677.75
2019-04-11T19:40:55.904Z,101677.21
2019-04-11T19:43:24.607Z,101680.38
2019-04-11T19:45:53.327Z,101679.12
2019-04-11T19:48:22.648Z,101676.42
2019-04-11T19:50:53.315Z,101675.14
2019-04-11T19:53:21.894Z,101675.89
2019-04-11T19:55:56.265Z,101677.77
2019-04-11T19:58:25.971Z,101672.34
2019-04-11T20:00:54.695Z,101673.49
2019-04-11T20:03:24.158Z,101676.78
2019-04-11T20:05:53.230Z,101674.74
2019-04-11T20:08:21.987Z,101684.17
2019-04-11T20:10:50.655Z,101685.55
2019-04-11T20:13:19.225Z,101682.56
2019-04-11T20:15:50.401Z,101681.58
2019-04-11T20:18:22.172Z,101684.84
2019-04-11T20:20:48.612Z,101682.19
2019-04-11T20:23:17.117Z,101680.27
2019-04-11T20:25:49.096Z,101681.20
2019-04-11T20:28:16.189Z,101680.21
2019-04-11T20:30:44.799Z,101680.58
2019-04-11T20:33:13.333Z,101674.70
2019-04-11T20:35:41.858Z,101679.28
2019-04-11T20:38:10.369Z,101679.12
2019-04-11T20:40:38.995Z,101677.14
2019-04-11T20:43:10.093Z,101673.31
2019-04-11T20:45:39.373Z,101678.13
2019-04-11T20:48:08.076Z,101672.05
2019-04-11T20:50:36.813Z,101671.39
2019-04-11T20:53:12.709Z,101673.14
2019-04-11T20:55:39.093Z,101672.59
2019-04-11T20:58:09.898Z,101674.22
2019-04-11T21:00:49.626Z,101677.67
2019-04-11T21:03:08.874Z,101680.25
2019-04-11T21:05:37.684Z,101677.64
2019-04-11T21:08:06.390Z,101679.63
2019-04-11T21:10:35.044Z,101684.06
2019-04-11T21:13:06.871Z,101683.77
2019-04-11T21:15:34.130Z,101682.68
2019-04-11T21:18:02.851Z,101685.95
2019-04-11T21:20:31.492Z,101685.48
2019-04-11T21:23:00.153Z,101698.20
2019-04-11T21:25:31.387Z,101689.34
2019-04-11T21:28:00.044Z,101693.30
2019-04-11T21:30:30.335Z,101691.67
2019-04-11T21:33:01.161Z,101692.34
2019-04-11T21:35:31.037Z,101694.95
2019-04-11T21:38:00.945Z,101696.52
2019-04-11T21:40:30.543Z,101702.23
2019-04-11T21:42:59.201Z,101695.83
2019-04-11T21:45:27.834Z,101697.46
2019-04-11T21:47:56.571Z,101704.87
2019-04-11T21:50:25.190Z,101705.06
2019-04-11T21:52:53.795Z,101712.89
2019-04-11T21:55:22.442Z,101710.39
2019-04-11T21:57:50.950Z,101712.11
2019-04-11T22:00:27.449Z,101709.53
2019-04-11T22:02:56.133Z,101717.84
2019-04-11T22:05:28.998Z,101717.46
2019-04-11T22:07:55.295Z,101711.87
2019-04-11T22:10:23.914Z,101713.42
2019-04-11T22:12:52.587Z,101715.41
2019-04-11T22:15:21.191Z,101704.56
2019-04-11T22:17:49.699Z,101705.54
2019-04-11T22:20:18.420Z,101707.72
2019-04-11T22:22:46.957Z,101703.72
2019-04-11T22:25:15.455Z,101702.41
2019-04-11T22:27:44.216Z,101700.58
2019-04-11T22:30:16.507Z,101699.88
2019-04-11T22:32:48.995Z,101704.72
2019-04-11T22:35:17.598Z,101706.77
2019-04-11T22:37:46.344Z,101709.95
2019-04-11T22:40:15.032Z,101715.06
2019-04-11T22:42:43.670Z,101707.34
2019-04-11T22:45:12.391Z,101710.41
2019-04-11T22:47:40.920Z,101718.59
2019-04-11T22:50:10.623Z,101718.19
2019-04-11T22:52:39.819Z,101713.39
2019-04-11T22:55:11.335Z,101712.38
2019-04-11T22:57:43.761Z,101711.24
2019-04-11T23:00:15.310Z,101708.94
2019-04-11T23:03:17.043Z,101713.28
2019-04-11T23:05:46.960Z,101710.48
2019-04-11T23:08:18.994Z,101707.15
2019-04-11T23:10:47.448Z,101705.46
2019-04-11T23:13:16.389Z,101707.24
2019-04-11T23:15:47.288Z,101704.48
2019-04-11T23:18:15.815Z,101703.45
2019-04-11T23:20:44.766Z,101701.81
2019-04-11T23:23:14.091Z,101712.85
2019-04-11T23:25:42.718Z,101710.54
2019-04-11T23:28:15.656Z,101713.21
2019-04-11T23:30:41.857Z,101719.50
2019-04-11T23:33:10.675Z,101722.78
2019-04-11T23:35:39.296Z,101718.73
2019-04-11T23:38:07.839Z,101714.91
2019-04-11T23:40:36.378Z,101717.87
2019-04-11T23:43:05.113Z,101721.09
2019-04-11T23:45:33.737Z,101727.12
2019-04-11T23:48:02.557Z,101729.78
2019-04-11T23:50:31.338Z,101724.22
2019-04-11T23:52:59.852Z,101726.70
2019-04-11T23:55:30.716Z,101727.99
2019-04-11T23:58:01.143Z,101732.22
